Thunder radar more information blitzortung!


Radar de pluja more information rain snow radar


Visita la nostra xarxa de llocs de meteo:

Template documentation
and downloads

And another site



Wind From: 11-12-2017 11:00 Until: 14:59 warning for: Wind Level: Yellow info button

Pagina Historial Weather Underground text

Diari Resum Juliol 9, 2017 Unitats:  Imperial    Mètric   Tant
« Previous Dia
SegĂźent Dia »
Diari Setmana Mensual Anual Personalitzada
  Maxima: Minima: Media:
Temperatura: 90 °F 66.7 °F 80.1 °F
Punt de rosada: 65.1 °F 58.5 °F 62.1 °F
Humitat: 83 % 37 % 57 %
Wind Speed: 12.7 mph 0 mph 4.5 mph
RĂ fegues de vent: 12.7 mph - -
Vent:- - SSE
Pression baro: 29.9 in 29.8 in -
Precipitacions: 0.04 in    
Historical Graphs
 
 
Dades de taula per Juliol 9, 2017
Temps Temperatura Punt de rosada Pression baro Vent Wind Speed RĂ fegues de vent Humitat Rainfall Rate (Hourly)
00:00 68.4 °F 59 °F 29.8 in SW 1 mph 3 mph 72 % 0 in
00:03 72.5 °F 64.6 °F 29.9 in West 1.2 mph   76 % 0 in
00:10 68.4 °F 59 °F 29.8 in SW 2 mph 3 mph 72 % 0 in
00:20 69.3 °F 59.5 °F 29.8 in WSW 2 mph 3 mph 71 % 0 in
00:30 69.1 °F 59.4 °F 29.8 in WSW 1 mph 2 mph 71 % 0 in
00:40 68.7 °F 58.8 °F 29.8 in Calm   2 mph 71 % 0 in
00:50 68 °F 58.6 °F 29.8 in SW 2 mph 3 mph 72 % 0 in
01:00 67.6 °F 59.2 °F 29.8 in SW 1 mph 2 mph 74 % 0 in
01:10 67.3 °F 58.6 °F 29.8 in SW 1 mph 2 mph 74 % 0 in
01:20 67.1 °F 58.8 °F 29.8 in SW 1 mph 1 mph 75 % 0 in
01:30 66.9 °F 59.2 °F 29.8 in Calm   1 mph 76 % 0 in
01:40 66.9 °F 59.2 °F 29.8 in East 1 mph 1 mph 76 % 0 in
01:50 66.9 °F 59.2 °F 29.8 in Calm   2 mph 76 % 0 in
02:00 66.7 °F 58.8 °F 29.8 in West 1 mph 2 mph 76 % 0 in
02:10 66.9 °F 59.2 °F 29.8 in WSW 1 mph 3 mph 76 % 0 in
02:20 67.3 °F 59.7 °F 29.8 in SW 2 mph 3 mph 77 % 0 in
02:30 67.6 °F 60.3 °F 29.8 in SW 2 mph 3 mph 77 % 0 in
02:40 68.4 °F 61 °F 29.8 in Calm   3 mph 77 % 0 in
02:50 70.2 °F 62.2 °F 29.8 in SSE 1 mph 2 mph 76 % 0 in
03:00 70.5 °F 61.9 °F 29.8 in SSE 1 mph 2 mph 74 % 0 in
03:10 71.2 °F 62.4 °F 29.8 in SSW 1 mph 1 mph 74 % 0 in
03:20 71.8 °F 62.8 °F 29.8 in SSW 1 mph 2 mph 73 % 0 in
03:30 72.7 °F 62.8 °F 29.8 in ENE 1 mph 5 mph 71 % 0 in
03:40 73.6 °F 63.1 °F 29.8 in NNE 3 mph 3 mph 70 % 0 in
03:50 74.5 °F 63.7 °F 29.8 in NNE 1 mph 2 mph 69 % 0 in
04:00 74.8 °F 63.1 °F 29.8 in Calm   3 mph 67 % 0 in
04:10 76.1 °F 63.5 °F 29.8 in East 2 mph 3 mph 65 % 0 in
04:20 75.9 °F 63.3 °F 29.8 in ENE 1 mph 2 mph 65 % 0 in
04:30 77.9 °F 64.2 °F 29.8 in ESE 1 mph 2 mph 63 % 0 in
04:40 78.3 °F 64.2 °F 29.8 in SSW 1 mph 2 mph 62 % 0 in
04:50 78.3 °F 64.2 °F 29.8 in East 1 mph 3 mph 62 % 0 in
05:00 79 °F 63.9 °F 29.8 in NNW 1 mph 3 mph 60 % 0 in
05:10 79 °F 63.9 °F 29.8 in WNW 2 mph 6 mph 60 % 0 in
10:19 79.9 °F 64.2 °F 29.9 in WNW 2.3 mph 2.4 mph 59 % 0 in
10:24 80.1 °F 64 °F 29.8 in SW 5.8 mph 5.8 mph 58 % 0 in
10:29 79.5 °F 63 °F 29.8 in WSW 5.8 mph 5.8 mph 57 % 0 in
10:34 79.7 °F 63.1 °F 29.8 in WSW 5.8 mph 5.8 mph 57 % 0 in
10:39 80.2 °F 63.7 °F 29.8 in WSW 5.8 mph 5.8 mph 57 % 0 in
10:44 80.6 °F 63.5 °F 29.8 in NNW 4.6 mph 4.6 mph 56 % 0 in
10:49 81 °F 63.3 °F 29.8 in SSW 5.8 mph 5.8 mph 55 % 0 in
10:54 81.3 °F 63.7 °F 29.8 in West 5.8 mph 5.8 mph 55 % 0 in
10:59 81.1 °F 63.3 °F 29.8 in WSW 7.1 mph 7.1 mph 55 % 0 in
11:04 81.3 °F 63.1 °F 29.8 in SSW 2.3 mph 2.3 mph 54 % 0 in
11:09 81.5 °F 63.3 °F 29.8 in WSW 5.8 mph 5.8 mph 54 % 0 in
11:14 82.6 °F 63.7 °F 29.8 in WSW 2.6 mph 2.6 mph 53 % 0 in
11:19 83.1 °F 64.2 °F 29.8 in SW 3.3 mph 3.3 mph 53 % 0 in
11:24 83.1 °F 63.7 °F 29.8 in West 4.7 mph 4.7 mph 52 % 0 in
11:29 83.5 °F 64 °F 29.8 in West 3.5 mph 3.5 mph 52 % 0 in
11:32 84.2 °F 63.5 °F 29.8 in SW 2.3 mph 2.3 mph 50 % 0 in
11:37 84.9 °F 64.2 °F 29.8 in WSW 3.8 mph 3.8 mph 50 % 0 in
11:42 83.5 °F 63 °F 29.8 in SW 4.6 mph 4.6 mph 50 % 0 in
11:47 83.7 °F 63 °F 29.8 in SSW 4.6 mph 4.6 mph 50 % 0 in
11:52 83.8 °F 63.1 °F 29.8 in WSW 5.9 mph 5.9 mph 50 % 0 in
11:57 84 °F 62.2 °F 29.8 in SW 6.9 mph 6.9 mph 48 % 0 in
12:02 84.7 °F 63 °F 29.8 in South 3.5 mph 3.5 mph 48 % 0 in
12:07 84.9 °F 62.4 °F 29.8 in West 8.1 mph 8.1 mph 47 % 0 in
12:12 84.9 °F 62.4 °F 29.8 in South 6.9 mph 6.9 mph 47 % 0 in
12:17 85.3 °F 62.8 °F 29.8 in WSW 5.8 mph 5.8 mph 47 % 0 in
12:22 86.2 °F 63 °F 29.8 in SSW 2.3 mph 2.3 mph 46 % 0 in
12:27 86.9 °F 63.7 °F 29.8 in SW 2.3 mph 2.3 mph 46 % 0 in
12:32 86.5 °F 63.3 °F 29.8 in WSW 4.6 mph 4.6 mph 46 % 0 in
12:37 86.7 °F 62.8 °F 29.8 in NNE 4.6 mph 4.6 mph 45 % 0 in
12:42 86.7 °F 62.8 °F 29.8 in SSW 5.8 mph 5.8 mph 45 % 0 in
12:47 86 °F 61.5 °F 29.8 in NNW 8.1 mph 8.1 mph 44 % 0 in
12:52 86 °F 61.5 °F 29.8 in WSW 4.6 mph 4.6 mph 44 % 0 in
12:57 86.5 °F 62.1 °F 29.8 in SW 5.4 mph 5.4 mph 44 % 0 in
13:02 87.6 °F 63 °F 29.8 in SSE 3.5 mph 3.5 mph 44 % 0 in
13:07 88.2 °F 62.8 °F 29.8 in SW 3.5 mph 3.5 mph 43 % 0 in
13:12 88.7 °F 63.3 °F 29.8 in South 4.6 mph 4.6 mph 43 % 0 in
13:17 88.2 °F 62.8 °F 29.8 in SW 3.5 mph 3.5 mph 43 % 0 in
13:22 88.3 °F 62.2 °F 29.8 in WSW 5.8 mph 5.8 mph 42 % 0 in
13:27 88.2 °F 62.2 °F 29.8 in SW 4.6 mph 4.6 mph 42 % 0 in
13:32 88.7 °F 62.8 °F 29.8 in SW 4.6 mph 4.6 mph 42 % 0 in
13:37 89.1 °F 62.2 °F 29.8 in West 4.6 mph 4.6 mph 41 % 0 in
13:42 88.7 °F 62.1 °F 29.8 in West 5.8 mph 5.8 mph 41 % 0 in
13:47 87.6 °F 61.7 °F 29.8 in South 5.8 mph 5.8 mph 42 % 0 in
13:52 87.8 °F 60.4 °F 29.8 in WSW 4.3 mph 4.3 mph 40 % 0 in
13:57 88 °F 61.3 °F 29.8 in WSW 5.4 mph 5.4 mph 41 % 0 in
14:02 88.5 °F 61.2 °F 29.8 in NW 5.8 mph 5.8 mph 40 % 0 in
14:07 87.3 °F 60.1 °F 29.8 in ESE 5.4 mph 5.4 mph 40 % 0 in
14:12 87.6 °F 60.3 °F 29.8 in SW 5.8 mph 5.8 mph 40 % 0 in
14:17 87.3 °F 60.1 °F 29.8 in ENE 5.8 mph 5.8 mph 40 % 0 in
14:22 88 °F 59.9 °F 29.8 in NE 3.6 mph 3.6 mph 39 % 0 in
14:27 87.4 °F 60.3 °F 29.8 in WSW 5.8 mph 5.8 mph 40 % 0 in
14:32 87.4 °F 60.3 °F 29.8 in South 4.6 mph 4.6 mph 40 % 0 in
14:37 88.3 °F 60.3 °F 29.8 in West 3.8 mph 4 mph 39 % 0 in
14:42 88 °F 59.9 °F 29.8 in South 3.5 mph 3.5 mph 39 % 0 in
14:47 89.1 °F 60.1 °F 29.8 in East 3.5 mph 3.5 mph 38 % 0 in
14:52 88.5 °F 60.4 °F 29.8 in SW 5.8 mph 5.8 mph 39 % 0 in
14:57 87.4 °F 60.3 °F 29.8 in SW 5.8 mph 5.8 mph 40 % 0 in
15:02 88.9 °F 61.3 °F 29.8 in SW 5.8 mph 5.8 mph 40 % 0 in
15:07 89.4 °F 61.2 °F 29.8 in South 4.6 mph 4.6 mph 39 % 0 in
15:12 89.4 °F 61.2 °F 29.8 in South 4.6 mph 4.6 mph 39 % 0 in
15:17 87.8 °F 59.7 °F 29.8 in South 5.8 mph 5.8 mph 39 % 0 in
15:22 87.1 °F 59.7 °F 29.8 in WSW 5.8 mph 5.8 mph 40 % 0 in
15:27 86.9 °F 59.7 °F 29.8 in SSW 3.5 mph 3.5 mph 40 % 0 in
15:32 86.4 °F 59.9 °F 29.8 in SSW 4.6 mph 4.6 mph 41 % 0 in
15:37 86 °F 59.5 °F 29.8 in South 5.8 mph 5.8 mph 41 % 0 in
15:42 86.9 °F 60.4 °F 29.8 in WSW 4.6 mph 4.6 mph 41 % 0 in
15:47 86.7 °F 60.3 °F 29.8 in SW 8.1 mph 8.1 mph 41 % 0 in
15:52 86.7 °F 60.3 °F 29.8 in West 9 mph 9 mph 41 % 0 in
15:57 87.4 °F 60.8 °F 29.8 in West 4.6 mph 4.6 mph 41 % 0 in
16:02 88.9 °F 61.3 °F 29.8 in South 5.8 mph 5.8 mph 40 % 0 in
16:07 88.5 °F 60.4 °F 29.8 in West 4.6 mph 4.6 mph 39 % 0 in
16:12 89.4 °F 61.2 °F 29.8 in West 3.5 mph 3.5 mph 39 % 0 in
16:17 89.8 °F 61.5 °F 29.8 in SW 5.6 mph 5.6 mph 39 % 0 in
16:22 90 °F 61.7 °F 29.8 in South 6.9 mph 6.9 mph 39 % 0 in
16:27 88.9 °F 60.1 °F 29.8 in SSW 4.6 mph 4.6 mph 38 % 0 in
16:32 89.8 °F 60.8 °F 29.8 in SW 4.6 mph 4.6 mph 38 % 0 in
16:37 88.2 °F 59.4 °F 29.8 in SW 9.2 mph 9.2 mph 38 % 0 in
16:38 88.2 °F 59.4 °F 29.8 in South 3.5 mph 3.5 mph 38 % 0 in
16:43 87.8 °F 59 °F 29.8 in SW 8.1 mph 8.1 mph 38 % 0 in
16:48 86.7 °F 58.8 °F 29.8 in SW 9.2 mph 9.2 mph 39 % 0 in
16:53 88.2 °F 60.1 °F 29.8 in SW 5.8 mph 5.8 mph 39 % 0 in
16:58 88.5 °F 60.4 °F 29.8 in SSW 8.1 mph 8.1 mph 39 % 0 in
17:03 89.2 °F 60.3 °F 29.8 in SW 6.9 mph 6.9 mph 38 % 0 in
17:08 89.6 °F 60.6 °F 29.8 in SW 10.4 mph 10.4 mph 38 % 0 in
17:09 89.4 °F 60.4 °F 29.8 in SSW 6.9 mph 6.9 mph 38 % 0 in
17:14 89.1 °F 60.1 °F 29.8 in West 5.8 mph 5.8 mph 38 % 0 in
17:19 89.6 °F 60.6 °F 29.8 in South 8.1 mph 8.1 mph 38 % 0 in
17:24 89.1 °F 60.1 °F 29.8 in SSW 6.9 mph 6.9 mph 38 % 0 in
17:29 88.7 °F 59.7 °F 29.8 in South 9.8 mph 9.8 mph 38 % 0 in
17:34 88.5 °F 58.8 °F 29.8 in SSW 8.1 mph 8.1 mph 37 % 0 in
17:39 87.3 °F 58.6 °F 29.8 in SSW 11.5 mph 11.5 mph 38 % 0 in
17:44 86.5 °F 58.6 °F 29.8 in SSW 5.8 mph 5.8 mph 39 % 0 in
17:49 86.4 °F 58.5 °F 29.8 in WSW 6.9 mph 6.9 mph 39 % 0 in
17:54 86.5 °F 58.6 °F 29.8 in South 7.4 mph 7.4 mph 39 % 0 in
17:59 85.6 °F 58.5 °F 29.8 in West 6.9 mph 6.9 mph 40 % 0 in
18:04 86.5 °F 59.4 °F 29.8 in SW 5.8 mph 5.8 mph 40 % 0 in
18:09 86.5 °F 59.4 °F 29.8 in SW 3.5 mph 3.5 mph 40 % 0 in
18:14 86.7 °F 59.5 °F 29.8 in SSE 5.8 mph 5.8 mph 40 % 0 in
18:19 87.1 °F 59.7 °F 29.8 in SSW 5.8 mph 5.8 mph 40 % 0 in
18:24 87.6 °F 60.3 °F 29.8 in WSW 5.8 mph 5.8 mph 40 % 0 in
18:29 87.6 °F 60.3 °F 29.8 in SW 6.9 mph 6.9 mph 40 % 0 in
18:34 88.2 °F 60.1 °F 29.8 in WSW 4.9 mph 4.9 mph 39 % 0 in
18:39 87.3 °F 60.1 °F 29.8 in SW 11.5 mph 11.5 mph 40 % 0 in
18:44 86.9 °F 59.7 °F 29.8 in SW 8.1 mph 8.1 mph 40 % 0 in
18:49 86.4 °F 59.2 °F 29.8 in SW 6.9 mph 6.9 mph 40 % 0 in
18:54 86.4 °F 59.9 °F 29.8 in WSW 4.6 mph 4.6 mph 41 % 0 in
18:59 86.5 °F 60.1 °F 29.8 in South 5.8 mph 5.8 mph 41 % 0 in
19:04 86.7 °F 60.3 °F 29.8 in WSW 3.5 mph 3.5 mph 41 % 0 in
19:09 86.7 °F 60.3 °F 29.8 in SW 4.6 mph 4.6 mph 41 % 0 in
19:14 86.5 °F 60.1 °F 29.8 in WSW 4.9 mph 4.9 mph 41 % 0 in
19:19 86 °F 59.5 °F 29.8 in WSW 3.3 mph 3.3 mph 41 % 0 in
19:20 72.5 °F 64.9 °F 29.9 in NE 3 mph 3 mph 77 % 0 in
19:24 86 °F 59.5 °F 29.8 in WSW 6.9 mph 6.9 mph 41 % 0 in
19:29 85.8 °F 60.1 °F 29.8 in SSE 3.5 mph 3.5 mph 42 % 0 in
19:34 85.3 °F 59.5 °F 29.8 in SE 5.8 mph 5.8 mph 42 % 0 in
19:39 83.8 °F 59.5 °F 29.8 in SSW 4.6 mph 4.6 mph 44 % 0 in
19:40 72.1 °F 64.9 °F 29.9 in NE 3 mph 3 mph 78 % 0 in
19:44 82.2 °F 60.1 °F 29.8 in East 12.7 mph 12.7 mph 47 % 0 in
19:49 81.5 °F 59.9 °F 29.8 in ENE 12.7 mph 12.7 mph 48 % 0 in
19:50 72.1 °F 64.9 °F 29.9 in NE 2 mph 3 mph 78 % 0 in
19:54 81.3 °F 60.3 °F 29.8 in ESE 10.4 mph 10.4 mph 49 % 0 in
19:59 80.6 °F 60.3 °F 29.8 in ENE 6.9 mph 6.9 mph 50 % 0 in
20:00 72 °F 64.8 °F 29.8 in NE 3 mph 3 mph 78 % 0 in
20:04 80.1 °F 60.8 °F 29.8 in ENE 10.4 mph 10.4 mph 52 % 0 in
20:09 79.7 °F 60.4 °F 29.8 in East 8.1 mph 8.1 mph 52 % 0 in
20:10 72 °F 64.8 °F 29.8 in NE 2 mph 3 mph 78 % 0 in
20:14 79.3 °F 60.6 °F 29.8 in East 6.9 mph 6.9 mph 53 % 0 in
20:19 79.2 °F 61.2 °F 29.8 in NE 7.6 mph 7.6 mph 54 % 0 in
20:20 71.8 °F 64.9 °F 29.9 in NE 1 mph 3 mph 79 % 0 in
20:24 78.8 °F 61.3 °F 29.8 in ESE 6.9 mph 6.9 mph 55 % 0 in
20:29 78.8 °F 61.9 °F 29.8 in East 10.4 mph 10.4 mph 56 % 0 in
20:30 71.8 °F 64.9 °F 29.8 in NE 2 mph 2 mph 79 % 0 in
20:34 78.8 °F 61.9 °F 29.8 in East 9.2 mph 9.2 mph 56 % 0 in
20:39 78.4 °F 61.9 °F 29.8 in East 10.4 mph 10.4 mph 57 % 0 in
20:40 71.6 °F 64.8 °F 29.8 in NE 1 mph 2 mph 79 % 0 in
20:44 78.1 °F 62.1 °F 29.8 in NE 6.2 mph 6.2 mph 58 % 0 in
20:49 77.9 °F 62.4 °F 29.8 in East 9.2 mph 9.2 mph 59 % 0 in
20:50 71.6 °F 64.8 °F 29.9 in NE 1 mph 2 mph 79 % 0 in
20:54 77.5 °F 62.6 °F 29.8 in SE 5.8 mph 5.8 mph 60 % 0 in
20:59 77.5 °F 62.6 °F 29.8 in ESE 6.9 mph 6.9 mph 60 % 0 in
21:00 71.6 °F 64.8 °F 29.8 in NE 1 mph 1 mph 79 % 0 in
21:04 77.2 °F 62.8 °F 29.8 in East 11.5 mph 11.5 mph 61 % 0 in
21:09 77.2 °F 62.8 °F 29.8 in ENE 4.9 mph 4.9 mph 61 % 0 in
21:10 71.2 °F 64.4 °F 29.8 in NE 1 mph 2 mph 79 % 0 in
21:14 76.8 °F 62.8 °F 29.8 in East 8.1 mph 8.1 mph 62 % 0 in
21:19 76.5 °F 63.3 °F 29.8 in East 5.8 mph 5.8 mph 64 % 0 in
21:20 71.1 °F 64.6 °F 29.9 in Calm   2 mph 80 % 0 in
21:24 76.3 °F 63.1 °F 29.8 in East 6.9 mph 6.9 mph 64 % 0 in
21:29 76.3 °F 63.7 °F 29.8 in ESE 6.9 mph 6.9 mph 65 % 0 in
21:30 70.9 °F 64.4 °F 29.9 in Calm   1 mph 80 % 0 in
21:34 75.9 °F 63.7 °F 29.8 in NNE 5.8 mph 5.8 mph 66 % 0 in
21:39 75.7 °F 64 °F 29.8 in ESE 6.9 mph 6.9 mph 67 % 0 in
21:40 70.7 °F 64.2 °F 29.9 in Calm     80 % 0 in
21:44 75.6 °F 63.9 °F 29.8 in East 5.8 mph 5.8 mph 67 % 0 in
21:49 75.4 °F 63.7 °F 29.8 in ENE 3.5 mph 3.5 mph 67 % 0 in
21:50 70.5 °F 64 °F 29.9 in Calm   1 mph 80 % 0 in
21:54 75.2 °F 63.9 °F 29.9 in ENE 3.6 mph 3.6 mph 68 % 0 in
21:59 75.2 °F 63.9 °F 29.9 in NW 5.8 mph 5.8 mph 68 % 0 in
22:00 70.3 °F 63.9 °F 29.9 in Calm     80 % 0 in
22:04 74.8 °F 64.4 °F 29.9 in East 5.8 mph 5.8 mph 70 % 0 in
22:09 74.8 °F 64.8 °F 29.9 in East 6 mph 6 mph 71 % 0 in
22:10 70 °F 63.5 °F 29.9 in Calm     80 % 0 in
22:14 74.7 °F 64.6 °F 29.9 in East 5.8 mph 5.8 mph 71 % 0 in
22:19 74.7 °F 64.6 °F 29.9 in ESE 5.8 mph 5.8 mph 71 % 0 in
22:20 70 °F 63.9 °F 29.9 in Calm     81 % 0 in
22:24 74.5 °F 64.9 °F 29.9 in North 5.8 mph 5.8 mph 72 % 0 in
22:29 74.3 °F 64.8 °F 29.9 in ENE 9.2 mph 9.2 mph 72 % 0 in
22:30 70.2 °F 64 °F 29.9 in Calm   1 mph 81 % 0 in
22:34 74.3 °F 65.1 °F 29.9 in NNE 4.6 mph 4.6 mph 73 % 0 in
22:39 74.1 °F 64.9 °F 29.9 in ENE 2.6 mph 2.9 mph 73 % 0 in
22:40 70 °F 63.9 °F 29.9 in NNE 1 mph 1 mph 81 % 0 in
22:44 73.9 °F 64.8 °F 29.9 in NNE 3.5 mph 3.5 mph 73 % 0 in
22:49 73.9 °F 64.8 °F 29.9 in ENE 4.6 mph 4.6 mph 73 % 0 in
22:50 69.8 °F 63.7 °F 29.9 in Calm     81 % 0 in
22:54 73.9 °F 65.1 °F 29.8 in East 3.5 mph 3.5 mph 74 % 0 in
22:59 73.8 °F 64.9 °F 29.8 in ENE 4.6 mph 4.6 mph 74 % 0 in
23:00 69.4 °F 63.7 °F 29.9 in Calm     82 % 0 in
23:04 73.8 °F 64.9 °F 29.8 in NE 3.5 mph 3.5 mph 74 % 0 in
23:09 73.8 °F 64.9 °F 29.8 in NNE 3.5 mph 3.5 mph 74 % 0 in
23:10 69.4 °F 63.7 °F 29.9 in Calm   2 mph 82 % 0 in
23:14 73.6 °F 64.8 °F 29.8 in NE 4.6 mph 4.6 mph 74 % 0 in
23:19 73.6 °F 64.8 °F 29.8 in ENE 3.5 mph 3.5 mph 74 % 0 in
23:20 69.3 °F 63.9 °F 29.9 in ENE 1 mph 2 mph 83 % 0 in
23:24 73.4 °F 64.6 °F 29.9 in ENE 3.5 mph 3.5 mph 74 % 0 in
23:29 73.4 °F 64.6 °F 29.9 in ESE 3.1 mph 3.1 mph 74 % 0 in
23:30 69.3 °F 63.9 °F 29.9 in ENE 1 mph 1 mph 83 % 0 in
23:34 73.4 °F 64.9 °F 29.9 in NE 2.4 mph 2.4 mph 75 % 0 in
23:39 73.2 °F 64.8 °F 29.9 in NE 2.3 mph 2.3 mph 75 % 0 in
23:40 69.3 °F 63.9 °F 29.9 in NE 1 mph 1 mph 83 % 0 in
23:44 73.2 °F 65.1 °F 29.9 in ENE 2.4 mph 2.4 mph 76 % 0 in
23:49 73 °F 64.6 °F 29.9 in ENE 4.3 mph 4.3 mph 75 % 0 in
23:50 68.9 °F 63.5 °F 29.8 in Calm   3 mph 83 % 0 in
23:54 73 °F 64.9 °F 29.9 in NNE 3.5 mph 3.5 mph 76 % 0 in
23:59 72.9 °F 64.8 °F 29.9 in ENE 4.6 mph 4.6 mph 76 % 0 in
Meteo Sesrovires
Elogis d' Weather Underground - 3.75 mb

Guio original per  Jim McMurry - jmcmurry@mwt.net Adaptat per a la plantilla per  Wim van der Kuil - Leuven-Template.eu

Trobareu la nostra informacio del temps tambe a:

Weather Underground

AWEKAS